Time;durP1;ratioP1;P1;durP2;ratioP2;P2;SDS_P1;SDS_P2;PMS_P1;PMS_P2;Temp;Humidity;BMP_temperature;BMP_pressure;BME280_temperature;BME280_humidity;BME280_pressure;Samples;Min_cycle;Max_cycle;Signal;HPM_P1;HPM_P2
2023/12/18 00:00:09;;;;;;;10.95;4.57;;;;;;;-5.43;97.77;101731.97;10206012;29;20032;-67
2023/12/18 00:05:09;;;;;;;7.30;4.18;;;;;;;-5.28;98.11;101729.03;10205976;29;20054;-69
2023/12/18 00:10:10;;;;;;;10.18;4.07;;;;;;;-5.51;98.45;101662.19;10205392;29;20418;-68
2023/12/18 00:15:11;;;;;;;7.50;3.40;;;;;;;-5.00;98.55;101726.69;10205081;29;20047;-66
2023/12/18 00:20:12;;;;;;;7.72;4.13;;;;;;;-5.28;98.51;101664.28;10205140;29;20046;-67
2023/12/18 00:25:13;;;;;;;8.00;4.45;;;;;;;-4.98;98.70;101716.31;10205772;29;20046;-69
2023/12/18 00:30:13;;;;;;;6.78;3.70;;;;;;;-5.23;99.10;101652.09;10206071;28;20036;-69
2023/12/18 00:35:15;;;;;;;7.93;4.47;;;;;;;-4.95;98.96;101685.97;10208798;29;20056;-67
2023/12/18 00:40:15;;;;;;;6.43;3.92;;;;;;;-4.82;98.82;101666.66;10212877;28;20094;-67
2023/12/18 00:45:16;;;;;;;6.80;3.72;;;;;;;-4.95;98.83;101648.84;10268498;28;20511;-66
2023/12/18 00:50:17;;;;;;;5.90;3.63;;;;;;;-4.82;99.20;101665.78;10211502;29;20189;-68
2023/12/18 00:55:18;;;;;;;6.95;3.67;;;;;;;-4.75;99.30;101646.63;10210873;29;20054;-69
2023/12/18 01:00:19;;;;;;;7.28;3.58;;;;;;;-4.78;98.98;101638.06;10210769;29;20054;-67
2023/12/18 01:05:19;;;;;;;5.50;3.20;;;;;;;-4.79;99.61;101632.00;10211358;29;20420;-67
2023/12/18 01:10:20;;;;;;;8.05;3.58;;;;;;;-4.79;99.50;101629.41;10210866;29;20048;-71
2023/12/18 01:15:21;;;;;;;8.10;3.17;;;;;;;-4.80;99.64;101612.19;10269885;28;20067;-69
2023/12/18 01:20:22;;;;;;;8.85;4.28;;;;;;;-4.75;99.82;101618.09;10211216;29;20052;-67
2023/12/18 01:25:22;;;;;;;7.95;4.05;;;;;;;-4.68;100.00;101608.41;10211111;29;20043;-67
2023/12/18 01:30:23;;;;;;;8.35;4.80;;;;;;;-4.59;100.00;101608.19;10210695;29;20040;-72
2023/12/18 01:35:24;;;;;;;11.55;4.63;;;;;;;-4.63;100.00;101578.88;10210007;29;20048;-67
2023/12/18 01:40:25;;;;;;;9.68;5.10;;;;;;;-4.34;100.00;101595.38;10210339;28;20063;-68
2023/12/18 01:45:26;;;;;;;9.25;4.90;;;;;;;-4.22;100.00;101592.47;10209794;29;20055;-67
2023/12/18 01:50:27;;;;;;;13.45;5.57;;;;;;;-4.18;100.00;101583.72;10208768;29;20040;-69
2023/12/18 01:55:28;;;;;;;9.02;4.88;;;;;;;-4.10;100.00;101582.63;10210227;29;20060;-69
2023/12/18 02:00:29;;;;;;;12.85;6.22;;;;;;;-3.90;100.00;101595.88;10209382;29;20047;-68
2023/12/18 02:05:30;;;;;;;10.77;5.85;;;;;;;-3.79;100.00;101588.63;10209002;29;20470;-68
2023/12/18 02:10:32;;;;;;;14.18;6.13;;;;;;;-3.58;100.00;101588.88;10218614;28;20036;-67
2023/12/18 02:15:32;;;;;;;11.30;5.60;;;;;;;-3.87;100.00;101509.28;10415973;28;20056;-68
2023/12/18 02:20:33;;;;;;;12.68;5.80;;;;;;;-3.39;100.00;101565.78;10255496;28;20039;-69
2023/12/18 02:25:34;;;;;;;10.77;5.10;;;;;;;-3.26;100.00;101560.16;10208130;29;20137;-69
2023/12/18 02:30:35;;;;;;;11.82;5.55;;;;;;;-3.16;100.00;101570.25;10260800;28;20040;-70
2023/12/18 02:35:36;;;;;;;10.98;5.80;;;;;;;-3.38;100.00;101515.50;10297160;28;20052;-70
2023/12/18 02:40:37;;;;;;;14.77;6.32;;;;;;;-3.26;100.00;101510.78;10353879;28;20054;-68
2023/12/18 02:45:38;;;;;;;12.95;5.53;;;;;;;-2.83;100.00;101555.25;10370659;28;20054;-66
2023/12/18 02:50:39;;;;;;;14.18;5.63;;;;;;;-2.63;100.00;101558.03;10382396;28;20045;-69
2023/12/18 02:55:39;;;;;;;9.95;4.90;;;;;;;-2.48;100.00;101546.22;10402463;28;20043;-67
2023/12/18 03:00:40;;;;;;;13.73;5.32;;;;;;;-2.41;100.00;101545.09;10409556;28;20052;-67
2023/12/18 03:05:41;;;;;;;13.30;5.32;;;;;;;-2.37;100.00;101538.84;10412092;28;20042;-66
2023/12/18 03:10:42;;;;;;;16.85;5.72;;;;;;;-2.48;100.00;101483.78;10414342;28;20043;-66
2023/12/18 03:15:43;;;;;;;13.73;5.68;;;;;;;-2.31;100.00;101494.38;10414137;28;20375;-66
2023/12/18 03:20:44;;;;;;;9.82;5.32;;;;;;;-2.04;100.00;101524.66;10413499;28;20080;-67
2023/12/18 03:25:45;;;;;;;28.42;6.95;;;;;;;-1.98;100.00;101520.06;10413828;28;20033;-67
2023/12/18 03:30:46;;;;;;;24.00;7.70;;;;;;;-2.06;100.00;101485.66;10412933;28;20052;-67
2023/12/18 03:35:46;;;;;;;17.50;7.35;;;;;;;-2.18;100.00;101450.53;10412851;28;20592;-71
2023/12/18 03:40:47;;;;;;;15.13;6.07;;;;;;;-1.61;100.00;101510.81;10380531;28;20054;-68
2023/12/18 03:45:48;;;;;;;10.57;5.38;;;;;;;-1.86;100.00;101446.66;10266771;28;20047;-69
2023/12/18 03:50:49;;;;;;;10.00;5.25;;;;;;;-1.48;100.00;101488.56;10204493;29;20039;-68
2023/12/18 03:55:49;;;;;;;15.70;5.88;;;;;;;-1.33;100.00;101483.63;10205323;29;20051;-68
2023/12/18 04:00:50;;;;;;;12.27;5.88;;;;;;;-1.29;100.00;101477.34;10206075;29;20051;-68
2023/12/18 04:05:51;;;;;;;14.23;6.32;;;;;;;-1.50;100.00;101434.78;10205612;29;20044;-68
2023/12/18 04:10:52;;;;;;;11.75;5.63;;;;;;;-1.11;100.00;101479.19;10209835;29;20043;-67
2023/12/18 04:15:53;;;;;;;11.57;5.40;;;;;;;-1.03;100.00;101479.72;10212270;29;20048;-68
2023/12/18 04:20:54;;;;;;;12.95;5.72;;;;;;;-1.00;100.00;101461.31;10210507;29;20048;-71
2023/12/18 04:25:55;;;;;;;11.35;5.32;;;;;;;-0.84;100.00;101468.47;10212632;29;20088;-68
2023/12/18 04:30:55;;;;;;;9.75;5.00;;;;;;;-0.76;100.00;101476.81;10209973;29;20120;-68
2023/12/18 04:35:58;;;;;;;9.30;5.32;;;;;;;-0.71;100.00;101478.31;10210481;29;20206;-68
2023/12/18 04:40:58;;;;;;;12.27;5.35;;;;;;;-0.65;100.00;101479.81;10211483;29;20052;-68
2023/12/18 04:45:59;;;;;;;10.82;5.32;;;;;;;-0.99;100.00;101410.88;10211015;29;20395;-69
2023/12/18 04:51:00;;;;;;;10.50;4.82;;;;;;;-0.58;100.00;101476.00;10211052;29;20058;-71
2023/12/18 04:56:01;;;;;;;10.95;4.65;;;;;;;-0.56;100.00;101463.75;10210904;29;20054;-68
2023/12/18 05:01:03;;;;;;;8.00;4.50;;;;;;;-0.32;100.00;101477.44;10210680;29;20050;-68
2023/12/18 05:06:04;;;;;;;9.65;3.97;;;;;;;-0.22;100.00;101477.84;10209668;29;20055;-68
2023/12/18 05:11:05;;;;;;;11.52;4.68;;;;;;;-0.25;100.00;101468.41;10210518;29;20043;-68
2023/12/18 05:16:05;;;;;;;13.55;4.60;;;;;;;0.01;100.00;101489.84;10210891;29;20109;-68
2023/12/18 05:21:06;;;;;;;9.93;5.53;;;;;;;-0.04;100.00;101465.72;10209561;29;20530;-68
2023/12/18 05:26:07;;;;;;;13.57;4.70;;;;;;;0.16;100.00;101477.84;10211370;29;20090;-68
2023/12/18 05:31:09;;;;;;;8.80;4.60;;;;;;;0.14;100.00;101445.69;10211189;29;20044;-68
2023/12/18 05:36:10;;;;;;;8.05;4.18;;;;;;;0.42;100.00;101459.13;10208164;28;20134;-68
2023/12/18 05:41:11;;;;;;;11.10;4.47;;;;;;;0.52;100.00;101454.28;10210295;29;20482;-68
2023/12/18 05:46:15;;;;;;;10.45;4.93;;;;;;;0.55;100.00;101441.06;10209409;29;20491;-68
2023/12/18 05:51:20;;;;;;;12.38;4.65;;;;;;;0.75;100.00;101449.66;10210115;29;20040;-68
2023/12/18 05:56:20;;;;;;;12.13;4.72;;;;;;;0.72;100.00;101419.28;10209938;29;20055;-68
2023/12/18 06:01:21;;;;;;;8.90;4.93;;;;;;;0.94;100.00;101434.72;10208945;29;20051;-68
2023/12/18 06:06:22;;;;;;;9.50;4.20;;;;;;;1.11;100.00;101449.56;10209603;29;20052;-68
2023/12/18 06:11:23;;;;;;;9.00;4.60;;;;;;;1.24;100.00;101437.50;10208794;29;20128;-70
2023/12/18 06:16:24;;;;;;;9.85;4.03;;;;;;;1.48;100.00;101450.22;10209170;29;20048;-68
2023/12/18 06:21:24;;;;;;;6.95;3.88;;;;;;;1.31;100.00;101389.13;10208447;29;20186;-68
2023/12/18 06:26:25;;;;;;;8.77;3.95;;;;;;;1.88;100.00;101432.31;10208292;29;20541;-68
2023/12/18 06:31:26;;;;;;;9.63;4.38;;;;;;;2.07;100.00;101411.19;10206974;29;20043;-68
2023/12/18 06:36:27;;;;;;;8.15;4.15;;;;;;;2.24;100.00;101414.53;10208851;29;20071;-68
2023/12/18 06:41:28;;;;;;;9.80;4.13;;;;;;;2.40;100.00;101403.16;10208370;29;20129;-67
2023/12/18 06:46:28;;;;;;;7.82;4.28;;;;;;;2.26;100.00;101348.88;10208240;29;20405;-68
2023/12/18 06:51:29;;;;;;;8.13;4.30;;;;;;;2.59;100.00;101384.53;10207971;29;20663;-68
2023/12/18 06:56:32;;;;;;;8.38;4.82;;;;;;;2.71;100.00;101407.41;10207391;29;20054;-67
2023/12/18 07:01:33;;;;;;;9.43;4.60;;;;;;;2.77;100.00;101403.59;10208244;29;20459;-67
2023/12/18 07:06:34;;;;;;;7.75;4.30;;;;;;;2.80;100.00;101406.03;10207029;29;20036;-67
2023/12/18 07:11:34;;;;;;;8.90;5.05;;;;;;;2.80;100.00;101403.41;10207032;29;20047;-66
2023/12/18 07:16:35;;;;;;;7.15;4.03;;;;;;;2.84;100.00;101418.91;10207494;29;20047;-67
2023/12/18 07:21:36;;;;;;;6.75;4.03;;;;;;;2.59;100.00;101353.91;10207186;29;20495;-68
2023/12/18 07:26:37;;;;;;;8.95;4.35;;;;;;;2.92;100.00;101387.75;10206484;29;20055;-68
2023/12/18 07:31:38;;;;;;;8.50;4.30;;;;;;;2.88;100.00;101373.16;10206366;29;20065;-68
2023/12/18 07:36:40;;;;;;;9.07;3.83;;;;;;;2.63;100.00;101326.56;10206706;29;20090;-70
2023/12/18 07:41:41;;;;;;;7.10;4.30;;;;;;;3.14;100.00;101386.44;10206094;29;20051;-67
2023/12/18 07:46:42;;;;;;;7.63;4.40;;;;;;;3.16;100.00;101372.28;10206612;29;20040;-67
2023/12/18 07:51:43;;;;;;;8.77;4.32;;;;;;;3.07;100.00;101356.25;10205877;29;20101;-68
2023/12/18 07:56:44;;;;;;;7.35;3.78;;;;;;;3.10;100.00;101341.16;10206687;29;20048;-68
2023/12/18 08:01:44;;;;;;;8.18;3.55;;;;;;;3.04;99.98;101314.47;10205743;29;20039;-68
2023/12/18 08:06:47;;;;;;;7.15;3.42;;;;;;;3.44;99.88;101362.72;10205365;29;20043;-68
2023/12/18 08:11:48;;;;;;;8.23;3.40;;;;;;;3.57;99.67;101345.22;10205425;29;20048;-67
2023/12/18 08:16:49;;;;;;;7.30;3.10;;;;;;;3.63;99.05;101329.03;10205063;29;20052;-67
2023/12/18 08:21:50;;;;;;;6.13;3.25;;;;;;;3.83;98.87;101346.16;10205451;29;20040;-66
2023/12/18 08:26:51;;;;;;;8.05;3.55;;;;;;;3.89;98.30;101327.34;10205507;29;20400;-66
2023/12/18 08:31:51;;;;;;;6.68;2.90;;;;;;;4.02;98.20;101311.59;10204924;29;20573;-66
2023/12/18 08:36:53;;;;;;;6.43;3.50;;;;;;;4.08;97.38;101316.47;10205371;29;20143;-67
2023/12/18 08:41:54;;;;;;;4.72;2.70;;;;;;;4.21;96.59;101310.38;10205309;29;20039;-68
2023/12/18 08:46:54;;;;;;;5.72;2.80;;;;;;;4.35;97.01;101305.88;10205428;29;20059;-66
2023/12/18 08:51:55;;;;;;;4.30;2.13;;;;;;;4.47;96.33;101298.09;10205428;29;20044;-66
2023/12/18 08:56:56;;;;;;;5.90;2.83;;;;;;;4.54;94.70;101292.28;10209150;29;20040;-67
2023/12/18 09:01:56;;;;;;;8.00;4.25;;;;;;;4.42;94.09;101274.72;10210921;29;20059;-67
2023/12/18 09:06:57;;;;;;;8.30;4.32;;;;;;;4.57;94.00;101280.72;10211732;29;20044;-65
2023/12/18 09:11:58;;;;;;;5.38;2.97;;;;;;;4.26;93.29;101237.28;10210614;29;20135;-65
2023/12/18 09:16:59;;;;;;;7.55;3.85;;;;;;;4.06;92.59;101215.78;10210338;29;20047;-66
2023/12/18 09:22:00;;;;;;;6.90;4.22;;;;;;;4.27;92.52;101260.81;10210164;29;20043;-67
2023/12/18 09:27:01;;;;;;;7.90;4.43;;;;;;;3.93;91.62;101219.38;10210591;29;20038;-67
2023/12/18 09:32:02;;;;;;;7.75;3.78;;;;;;;4.27;91.71;101267.88;10211081;29;20048;-67
2023/12/18 09:37:03;;;;;;;6.38;4.05;;;;;;;4.27;91.68;101254.72;10209758;28;20095;-67
2023/12/18 09:42:05;;;;;;;6.95;3.85;;;;;;;4.26;91.15;101247.78;10210191;29;20055;-68
2023/12/18 09:47:07;;;;;;;6.47;3.85;;;;;;;4.27;90.53;101233.69;10210916;29;20050;-68
2023/12/18 09:52:11;;;;;;;8.32;3.97;;;;;;;4.24;90.82;101229.47;10210027;29;20066;-67
2023/12/18 09:57:14;;;;;;;7.28;3.67;;;;;;;4.15;90.14;101224.00;10209216;29;20419;-67
2023/12/18 10:02:17;;;;;;;6.50;4.15;;;;;;;3.96;90.68;101169.22;10210284;29;20040;-68
2023/12/18 10:07:18;;;;;;;7.35;4.70;;;;;;;4.21;89.82;101197.28;10209383;29;20055;-68
2023/12/18 10:12:18;;;;;;;10.45;4.50;;;;;;;4.23;89.59;101182.25;10209575;29;20051;-68
2023/12/18 10:17:20;;;;;;;8.13;3.40;;;;;;;4.09;89.05;101141.97;10209163;29;20519;-68
2023/12/18 10:22:21;;;;;;;6.45;3.47;;;;;;;4.31;88.82;101172.88;10208505;29;20035;-68
2023/12/18 10:27:22;;;;;;;4.63;3.15;;;;;;;4.42;88.57;101174.75;10208358;29;20101;-68
2023/12/18 10:32:23;;;;;;;5.28;3.20;;;;;;;4.52;87.71;101181.06;10209089;29;20047;-71
2023/12/18 10:37:29;;;;;;;6.07;2.90;;;;;;;4.35;87.50;101134.88;10208027;29;20094;-68
2023/12/18 10:42:37;;;;;;;9.07;2.80;;;;;;;4.61;85.93;101183.97;10208303;28;20050;-69
2023/12/18 10:47:39;;;;;;;5.25;3.03;;;;;;;4.58;87.06;101178.00;10208394;29;20051;-68
2023/12/18 10:52:42;;;;;;;6.57;2.88;;;;;;;4.64;87.23;101167.97;10208250;29;20036;-68
2023/12/18 10:57:44;;;;;;;4.40;2.70;;;;;;;4.75;87.59;101154.88;10208050;29;20105;-70
2023/12/18 11:02:46;;;;;;;4.20;2.38;;;;;;;4.81;87.69;101157.06;10207660;29;20039;-69
2023/12/18 11:07:49;;;;;;;4.10;2.20;;;;;;;4.79;87.18;101137.94;10207104;29;20051;-70
2023/12/18 11:12:55;;;;;;;4.65;2.50;;;;;;;4.88;87.82;101155.69;10207051;29;20581;-69
2023/12/18 11:18:15;;;;;;;4.88;2.00;;;;;;;4.87;87.47;101161.03;10206837;29;20130;-69
2023/12/18 11:23:16;;;;;;;5.40;2.15;;;;;;;4.87;87.89;101137.34;10206759;29;20845;-69
2023/12/18 11:28:20;;;;;;;4.40;2.00;;;;;;;4.67;87.15;101101.97;10206594;29;20403;-69
2023/12/18 11:33:20;;;;;;;3.87;2.03;;;;;;;4.92;86.43;101141.34;10206775;29;20048;-69
2023/12/18 11:38:24;;;;;;;5.70;2.10;;;;;;;4.76;86.02;101127.63;10206547;29;20063;-70
2023/12/18 11:43:41;;;;;;;4.50;1.80;;;;;;;4.82;84.69;101137.69;10207302;29;20483;-69
2023/12/18 11:48:42;;;;;;;2.70;1.77;;;;;;;4.77;85.59;101137.19;10206613;29;20412;-69
2023/12/18 11:53:43;;;;;;;3.55;2.03;;;;;;;4.73;85.80;101141.84;10206530;29;20043;-70
2023/12/18 11:58:46;;;;;;;3.75;2.00;;;;;;;4.38;85.69;101099.63;10206180;29;20054;-71
2023/12/18 12:03:47;;;;;;;3.03;1.77;;;;;;;4.64;86.17;101146.94;10206557;29;20054;-70
2023/12/18 12:08:49;;;;;;;4.47;1.58;;;;;;;4.61;86.58;101149.75;10205440;29;20042;-69
2023/12/18 12:13:54;;;;;;;9.68;2.08;;;;;;;4.39;86.54;101132.88;10206006;29;20055;-69
2023/12/18 12:18:55;;;;;;;4.07;1.75;;;;;;;4.43;86.87;101149.28;10205821;29;20134;-70
2023/12/18 12:23:56;;;;;;;3.28;1.90;;;;;;;3.81;87.00;101071.22;10205290;29;20126;-69
2023/12/18 12:28:59;;;;;;;4.05;1.98;;;;;;;4.33;87.35;101180.66;10206029;29;20043;-71
2023/12/18 12:33:59;;;;;;;3.63;1.83;;;;;;;4.23;87.04;101190.13;10224660;28;20041;-71
2023/12/18 12:39:00;;;;;;;4.28;2.20;;;;;;;4.18;87.33;101192.25;10285018;28;20431;-75
2023/12/18 12:44:01;;;;;;;7.30;2.00;;;;;;;3.79;87.56;101146.69;10317629;28;20558;-72
2023/12/18 12:49:08;;;;;;;6.93;2.33;;;;;;;4.06;88.24;101194.75;10345897;28;20048;-71
2023/12/18 12:54:09;;;;;;;4.43;2.20;;;;;;;4.02;88.32;101187.19;10231902;29;20035;-72
2023/12/18 12:59:10;;;;;;;4.60;1.98;;;;;;;4.06;88.61;101205.28;10252195;28;20576;-72
2023/12/18 13:04:10;;;;;;;5.47;1.90;;;;;;;3.98;88.52;101204.97;10250563;28;20043;-71
2023/12/18 13:09:12;;;;;;;8.93;2.40;;;;;;;4.05;88.38;101214.13;10335013;28;20045;-72
2023/12/18 13:14:13;;;;;;;6.28;2.55;;;;;;;3.87;88.41;101189.91;10418728;28;20045;-73
2023/12/18 13:19:13;;;;;;;4.38;2.30;;;;;;;3.92;88.62;101207.16;10395554;28;20055;-72
2023/12/18 13:24:14;;;;;;;4.47;2.42;;;;;;;3.90;88.98;101212.53;10210827;28;20054;-71
2023/12/18 13:29:16;;;;;;;5.13;2.67;;;;;;;3.53;89.53;101161.59;10210006;29;20039;-74
2023/12/18 13:34:17;;;;;;;5.93;3.22;;;;;;;3.78;89.96;101210.72;10211428;29;20407;-73
2023/12/18 13:39:17;;;;;;;5.50;2.85;;;;;;;3.73;90.54;101202.31;10264407;28;20056;-72
2023/12/18 13:44:18;;;;;;;6.78;3.03;;;;;;;3.72;90.79;101195.38;10354219;28;20037;-72
2023/12/18 13:49:19;;;;;;;5.88;3.25;;;;;;;3.34;91.36;101151.47;10325052;28;20079;-72
2023/12/18 13:54:21;;;;;;;5.20;2.90;;;;;;;3.38;90.95;101179.22;10268954;28;20048;-73
2023/12/18 13:59:22;;;;;;;5.30;2.70;;;;;;;3.64;90.52;101216.91;10209720;29;20047;-73
2023/12/18 14:04:22;;;;;;;4.20;2.88;;;;;;;3.63;90.76;101212.59;10209079;29;20043;-73
2023/12/18 14:09:26;;;;;;;4.93;2.50;;;;;;;3.60;90.54;101202.28;10209275;29;20039;-73
2023/12/18 14:14:27;;;;;;;7.28;2.50;;;;;;;3.60;91.18;101200.50;10208967;29;20048;-74
2023/12/18 14:19:27;;;;;;;6.38;2.78;;;;;;;3.12;91.27;101134.53;10267251;28;20047;-73
2023/12/18 14:24:28;;;;;;;4.65;2.92;;;;;;;3.49;91.51;101195.13;10266376;28;20100;-73
2023/12/18 14:29:29;;;;;;;4.15;2.63;;;;;;;3.49;91.76;101215.28;10208811;28;20098;-75
2023/12/18 14:34:30;;;;;;;6.28;2.90;;;;;;;3.43;91.68;101209.47;10282403;28;20050;-74
2023/12/18 14:39:31;;;;;;;5.47;3.22;;;;;;;3.48;92.21;101218.88;10271342;28;20063;-75
2023/12/18 14:44:34;;;;;;;7.13;3.53;;;;;;;3.29;92.12;101188.56;10252441;28;20043;-74
2023/12/18 14:49:35;;;;;;;6.50;3.67;;;;;;;3.14;92.71;101156.28;10228076;28;20055;-73
2023/12/18 14:54:36;;;;;;;7.97;3.70;;;;;;;3.40;92.61;101212.31;10224615;28;20050;-74
2023/12/18 14:59:37;;;;;;;6.53;3.42;;;;;;;3.48;92.71;101222.34;10250450;28;20037;-74
2023/12/18 15:04:39;;;;;;;5.82;3.25;;;;;;;3.52;92.98;101226.44;10242179;28;20051;-74
2023/12/18 15:09:40;;;;;;;6.20;3.00;;;;;;;3.49;92.84;101215.28;10245701;28;20039;-75
2023/12/18 15:14:41;;;;;;;6.57;2.72;;;;;;;3.14;92.61;101147.53;10241528;28;20049;-75
2023/12/18 15:19:42;;;;;;;6.13;2.70;;;;;;;3.37;92.94;101170.50;10231829;28;20075;-75
2023/12/18 15:24:43;;;;;;;5.50;2.65;;;;;;;3.29;93.29;101154.44;10224470;28;20100;-74
2023/12/18 15:29:44;;;;;;;20.38;3.10;;;;;;;3.67;93.03;101207.03;10233235;28;20121;-74
2023/12/18 15:34:45;;;;;;;5.97;2.45;;;;;;;3.71;93.08;101205.06;10269855;28;20409;-75
2023/12/18 15:39:45;;;;;;;5.00;2.42;;;;;;;3.39;93.33;101155.47;10233579;28;20094;-74
2023/12/18 15:44:49;;;;;;;10.63;1.98;;;;;;;3.32;92.94;101146.34;10224434;29;20051;-75
2023/12/18 15:49:50;;;;;;;4.07;1.63;;;;;;;3.75;93.80;101193.38;10217350;29;20447;-75
2023/12/18 15:54:51;;;;;;;4.13;1.88;;;;;;;3.36;93.41;101121.53;10250166;28;20094;-76
2023/12/18 15:59:51;;;;;;;6.57;1.80;;;;;;;3.17;93.37;101106.19;10276359;28;20373;-75
2023/12/18 16:04:52;;;;;;;3.05;1.67;;;;;;;3.61;93.60;101189.03;10254609;28;20161;-76
2023/12/18 16:09:53;;;;;;;4.15;1.77;;;;;;;3.39;93.97;101157.28;10327889;28;20091;-75
2023/12/18 16:14:54;;;;;;;5.35;2.20;;;;;;;3.55;94.02;101209.63;10293385;28;20047;-75
2023/12/18 16:19:55;;;;;;;3.25;2.03;;;;;;;3.39;93.75;101189.63;10212891;29;20527;-75
2023/12/18 16:24:56;;;;;;;7.10;2.75;;;;;;;3.47;93.93;101207.53;10212331;29;20044;-75
2023/12/18 16:29:57;;;;;;;7.03;2.80;;;;;;;3.05;93.57;101143.75;10257887;28;20043;-75
2023/12/18 16:34:58;;;;;;;10.63;3.08;;;;;;;3.30;94.51;101199.91;10212344;29;20063;-75
2023/12/18 16:39:59;;;;;;;6.97;3.33;;;;;;;3.01;94.36;101168.50;10284553;28;20059;-74
2023/12/18 16:45:00;;;;;;;7.22;3.10;;;;;;;2.78;94.02;101140.25;10295501;28;20404;-75
2023/12/18 16:50:01;;;;;;;10.13;3.50;;;;;;;3.14;94.52;101200.91;10305392;28;20049;-73
2023/12/18 16:55:02;;;;;;;5.68;2.95;;;;;;;3.07;95.13;101183.00;10390307;28;20493;-74
2023/12/18 17:00:03;;;;;;;7.32;3.35;;;;;;;3.19;94.96;101214.56;10362073;28;20049;-74
2023/12/18 17:05:04;;;;;;;7.57;3.63;;;;;;;2.97;95.10;101183.59;10224711;28;20094;-74
2023/12/18 17:10:05;;;;;;;6.63;3.60;;;;;;;2.90;95.42;101199.81;10227614;28;20047;-74
2023/12/18 17:15:07;;;;;;;10.18;4.80;;;;;;;2.71;95.50;101166.88;10251586;28;20050;-75
2023/12/18 17:20:08;;;;;;;11.15;4.40;;;;;;;2.50;95.63;101131.53;10210348;29;20090;-75
2023/12/18 17:25:09;;;;;;;8.02;4.30;;;;;;;2.86;95.77;101185.22;10210431;29;20101;-75
2023/12/18 17:30:10;;;;;;;7.57;3.90;;;;;;;2.78;95.46;101175.19;10210328;29;20101;-75
2023/12/18 17:35:11;;;;;;;8.15;3.53;;;;;;;2.89;95.29;101190.28;10208679;29;20048;-75
2023/12/18 17:40:12;;;;;;;7.80;3.53;;;;;;;2.86;95.35;101180.81;10210141;29;20051;-75
2023/12/18 17:45:13;;;;;;;6.28;3.78;;;;;;;2.92;95.45;101175.16;10209769;29;20043;-75
2023/12/18 17:50:14;;;;;;;6.15;3.47;;;;;;;2.92;95.12;101171.72;10267912;28;20051;-75
2023/12/18 17:55:16;;;;;;;6.78;3.40;;;;;;;2.65;94.77;101125.31;10210482;29;20054;-75
2023/12/18 18:00:17;;;;;;;9.13;4.07;;;;;;;2.95;95.37;101187.25;10209808;28;20067;-75
2023/12/18 18:05:18;;;;;;;5.28;3.20;;;;;;;2.45;95.54;101102.97;10209824;29;20105;-74
2023/12/18 18:10:19;;;;;;;5.38;3.38;;;;;;;2.87;95.51;101166.78;10208861;29;20193;-75
2023/12/18 18:15:20;;;;;;;6.78;3.67;;;;;;;3.00;95.62;101177.31;10209600;29;20097;-75
2023/12/18 18:20:21;;;;;;;6.68;3.70;;;;;;;3.01;95.77;101165.88;10208655;29;20075;-75
2023/12/18 18:25:22;;;;;;;7.95;3.50;;;;;;;3.07;95.43;101181.22;10208710;29;20122;-75
2023/12/18 18:30:23;;;;;;;6.15;3.60;;;;;;;2.75;95.55;101125.53;10208127;29;20048;-75
2023/12/18 18:35:25;;;;;;;7.07;3.45;;;;;;;3.05;95.24;101166.50;10209298;29;20054;-75
2023/12/18 18:40:25;;;;;;;8.20;3.13;;;;;;;3.05;95.45;101163.88;10208832;29;20091;-75
2023/12/18 18:45:26;;;;;;;6.18;3.47;;;;;;;2.78;95.61;101108.78;10246521;28;20069;-75
2023/12/18 18:50:27;;;;;;;8.40;3.85;;;;;;;2.97;95.71;101159.97;10286071;28;20070;-75
2023/12/18 18:55:28;;;;;;;8.40;3.85;;;;;;;2.93;95.92;101170.75;10208583;29;20126;-75
2023/12/18 19:00:30;;;;;;;7.70;4.57;;;;;;;2.84;96.39;101156.47;10207280;29;20047;-74
2023/12/18 19:05:30;;;;;;;6.88;3.85;;;;;;;2.34;96.74;101066.09;10353263;28;20124;-75
2023/12/18 19:10:31;;;;;;;7.30;4.47;;;;;;;2.96;97.01;101162.69;10346013;28;20047;-74
2023/12/18 19:15:32;;;;;;;6.40;4.18;;;;;;;2.90;97.52;101139.47;10211157;28;20119;-74
2023/12/18 19:20:34;;;;;;;6.38;3.88;;;;;;;3.00;97.56;101158.09;10207949;29;20044;-74
2023/12/18 19:25:35;;;;;;;7.03;3.92;;;;;;;2.71;97.27;101096.06;10274336;28;20127;-74
2023/12/18 19:30:36;;;;;;;6.97;4.25;;;;;;;3.08;97.66;101146.16;10412056;28;20144;-71
2023/12/18 19:35:39;;;;;;;8.68;4.22;;;;;;;3.03;97.94;101139.53;10413609;28;20137;-71
2023/12/18 19:40:40;;;;;;;7.07;4.30;;;;;;;3.13;98.40;101151.09;10412014;28;20057;-72
2023/12/18 19:45:41;;;;;;;9.68;5.00;;;;;;;3.03;98.59;101127.25;10340734;28;20094;-72
2023/12/18 19:50:42;;;;;;;12.23;5.47;;;;;;;3.15;98.98;101131.69;10206609;29;20055;-72
2023/12/18 19:55:43;;;;;;;8.32;5.35;;;;;;;3.31;99.30;101141.19;10205982;29;20052;-72
2023/12/18 20:00:44;;;;;;;7.45;5.25;;;;;;;3.30;99.21;101121.13;10205443;29;20547;-72
2023/12/18 20:05:45;;;;;;;11.60;5.38;;;;;;;3.09;99.47;101090.09;10206229;29;20047;-72
2023/12/18 20:10:46;;;;;;;12.52;6.70;;;;;;;3.46;99.44;101136.69;10206127;29;20050;-72
2023/12/18 20:15:47;;;;;;;20.25;6.15;;;;;;;3.37;99.53;101130.25;10205822;29;20515;-72
2023/12/18 20:20:48;;;;;;;12.02;6.10;;;;;;;3.34;100.00;101138.34;10205715;29;20044;-74
2023/12/18 20:25:49;;;;;;;14.30;6.43;;;;;;;3.50;100.00;101138.16;10206345;29;20047;-74
2023/12/18 20:30:51;;;;;;;10.85;7.55;;;;;;;3.15;100.00;101073.09;10205023;29;20048;-74
2023/12/18 20:35:52;;;;;;;10.35;6.63;;;;;;;3.29;100.00;101088.78;10204938;29;20085;-73
2023/12/18 20:40:53;;;;;;;12.55;7.68;;;;;;;3.51;100.00;101127.56;10205691;29;20070;-74
2023/12/18 20:45:53;;;;;;;8.80;6.68;;;;;;;3.53;100.00;101144.06;10204980;29;20066;-74
2023/12/18 20:50:55;;;;;;;13.77;7.18;;;;;;;3.46;100.00;101150.66;10206851;29;20047;-73
2023/12/18 20:55:55;;;;;;;9.70;6.28;;;;;;;3.47;100.00;101152.34;10211158;29;20047;-73
2023/12/18 21:00:56;;;;;;;12.70;7.18;;;;;;;3.47;100.00;101141.84;10211718;29;20043;-74
2023/12/18 21:05:57;;;;;;;10.25;6.35;;;;;;;3.13;100.00;101083.69;10212020;29;20086;-73
2023/12/18 21:10:58;;;;;;;10.32;7.13;;;;;;;2.97;100.00;101052.38;10211134;29;20048;-73
2023/12/18 21:15:59;;;;;;;13.20;8.20;;;;;;;3.16;100.00;101078.22;10210559;29;20074;-74
2023/12/18 21:21:01;;;;;;;10.13;7.32;;;;;;;3.51;100.00;101134.59;10211009;29;20138;-73
2023/12/18 21:26:03;;;;;;;18.20;7.78;;;;;;;3.57;100.00;101129.78;10210168;29;20038;-73
2023/12/18 21:31:04;;;;;;;10.35;7.40;;;;;;;3.58;100.00;101123.56;10210278;29;20098;-73
2023/12/18 21:36:05;;;;;;;10.90;7.35;;;;;;;3.64;100.00;101132.81;10210076;29;20043;-73
2023/12/18 21:41:06;;;;;;;10.13;7.38;;;;;;;3.65;100.00;101132.72;10210722;29;20143;-73
2023/12/18 21:46:07;;;;;;;15.48;7.00;;;;;;;3.61;100.00;101125.97;10209650;29;20531;-73
2023/12/18 21:51:08;;;;;;;9.95;6.63;;;;;;;3.67;100.00;101133.44;10211022;29;20044;-72
2023/12/18 21:56:09;;;;;;;10.45;6.82;;;;;;;3.34;100.00;101077.94;10209258;29;20043;-73
2023/12/18 22:01:10;;;;;;;10.90;7.75;;;;;;;3.58;100.00;101114.84;10209462;29;20047;-72
2023/12/18 22:06:11;;;;;;;11.48;7.63;;;;;;;3.74;100.00;101133.91;10209200;29;20130;-73
2023/12/18 22:11:12;;;;;;;9.65;6.82;;;;;;;3.75;100.00;101135.56;10209558;29;20043;-72
2023/12/18 22:16:13;;;;;;;10.13;6.95;;;;;;;3.56;100.00;101117.59;10209174;29;20040;-73
2023/12/18 22:21:13;;;;;;;9.85;6.50;;;;;;;3.42;100.00;101118.50;10209311;29;20130;-72
2023/12/18 22:26:14;;;;;;;8.90;6.38;;;;;;;3.55;100.00;101149.19;10208862;29;20609;-72
2023/12/18 22:31:15;;;;;;;9.85;6.63;;;;;;;3.53;100.00;101161.59;10209258;29;20042;-73
2023/12/18 22:36:16;;;;;;;11.88;7.40;;;;;;;3.07;100.00;101096.38;10208347;29;20059;-72
2023/12/18 22:41:17;;;;;;;12.48;6.63;;;;;;;3.30;100.00;101144.75;10207466;29;20047;-72
2023/12/18 22:46:18;;;;;;;13.68;7.18;;;;;;;3.10;100.00;101146.88;10207782;29;20067;-72
2023/12/18 22:51:19;;;;;;;10.32;7.22;;;;;;;3.16;100.00;101156.16;10207725;29;20464;-72
2023/12/18 22:56:20;;;;;;;12.52;7.90;;;;;;;3.25;100.00;101178.34;10207683;29;20082;-71
2023/12/18 23:01:21;;;;;;;11.05;7.13;;;;;;;3.25;100.00;101176.56;10245357;29;20085;-71